sensor_id;sensor_type;location;lat;lon;timestamp;P1;durP1;ratioP1;P2;durP2;ratioP2
15114;SDS011;7658;51.456;7.622;2022-08-21T00:00:51;16.55;;;11.02;;
15114;SDS011;7658;51.456;7.622;2022-08-21T00:03:17;16.33;;;11.50;;
15114;SDS011;7658;51.456;7.622;2022-08-21T00:05:45;18.50;;;11.50;;
15114;SDS011;7658;51.456;7.622;2022-08-21T00:08:14;20.60;;;11.68;;
15114;SDS011;7658;51.456;7.622;2022-08-21T00:10:41;14.90;;;11.40;;
15114;SDS011;7658;51.456;7.622;2022-08-21T00:13:08;15.43;;;11.02;;
15114;SDS011;7658;51.456;7.622;2022-08-21T00:15:35;18.02;;;11.93;;
15114;SDS011;7658;51.456;7.622;2022-08-21T00:18:02;17.58;;;11.52;;
15114;SDS011;7658;51.456;7.622;2022-08-21T00:20:29;15.35;;;10.77;;
15114;SDS011;7658;51.456;7.622;2022-08-21T00:22:56;16.65;;;11.23;;
15114;SDS011;7658;51.456;7.622;2022-08-21T00:25:22;17.80;;;11.82;;
15114;SDS011;7658;51.456;7.622;2022-08-21T00:27:48;17.13;;;10.95;;
15114;SDS011;7658;51.456;7.622;2022-08-21T00:30:16;14.70;;;9.90;;
15114;SDS011;7658;51.456;7.622;2022-08-21T00:32:43;18.30;;;11.18;;
15114;SDS011;7658;51.456;7.622;2022-08-21T00:35:10;16.65;;;11.20;;
15114;SDS011;7658;51.456;7.622;2022-08-21T00:37:38;15.35;;;10.82;;
15114;SDS011;7658;51.456;7.622;2022-08-21T00:40:05;17.50;;;11.23;;
15114;SDS011;7658;51.456;7.622;2022-08-21T00:42:33;14.57;;;10.73;;
15114;SDS011;7658;51.456;7.622;2022-08-21T00:45:00;16.33;;;10.82;;
15114;SDS011;7658;51.456;7.622;2022-08-21T00:47:27;15.98;;;11.13;;
15114;SDS011;7658;51.456;7.622;2022-08-21T00:49:53;14.77;;;10.35;;
15114;SDS011;7658;51.456;7.622;2022-08-21T00:52:20;17.38;;;10.63;;
15114;SDS011;7658;51.456;7.622;2022-08-21T00:54:50;17.40;;;10.88;;
15114;SDS011;7658;51.456;7.622;2022-08-21T00:57:17;14.18;;;10.70;;
15114;SDS011;7658;51.456;7.622;2022-08-21T00:59:49;12.68;;;10.18;;
15114;SDS011;7658;51.456;7.622;2022-08-21T01:02:18;15.18;;;9.85;;
15114;SDS011;7658;51.456;7.622;2022-08-21T01:04:45;13.30;;;9.63;;
15114;SDS011;7658;51.456;7.622;2022-08-21T01:07:11;17.75;;;9.70;;
15114;SDS011;7658;51.456;7.622;2022-08-21T01:12:07;15.98;;;9.60;;
15114;SDS011;7658;51.456;7.622;2022-08-21T01:14:34;12.30;;;9.65;;
15114;SDS011;7658;51.456;7.622;2022-08-21T01:17:00;15.18;;;9.70;;
15114;SDS011;7658;51.456;7.622;2022-08-21T01:19:28;14.55;;;9.40;;
15114;SDS011;7658;51.456;7.622;2022-08-21T01:21:54;15.18;;;9.77;;
15114;SDS011;7658;51.456;7.622;2022-08-21T01:24:21;12.00;;;9.55;;
15114;SDS011;7658;51.456;7.622;2022-08-21T01:26:47;16.60;;;9.80;;
15114;SDS011;7658;51.456;7.622;2022-08-21T01:31:45;13.88;;;9.55;;
15114;SDS011;7658;51.456;7.622;2022-08-21T01:34:11;12.52;;;9.10;;
15114;SDS011;7658;51.456;7.622;2022-08-21T01:36:37;12.38;;;8.98;;
15114;SDS011;7658;51.456;7.622;2022-08-21T01:39:03;16.35;;;10.00;;
15114;SDS011;7658;51.456;7.622;2022-08-21T01:41:30;17.38;;;10.10;;
15114;SDS011;7658;51.456;7.622;2022-08-21T01:43:55;14.25;;;9.93;;
15114;SDS011;7658;51.456;7.622;2022-08-21T01:46:21;14.23;;;9.80;;
15114;SDS011;7658;51.456;7.622;2022-08-21T01:48:47;15.95;;;9.15;;
15114;SDS011;7658;51.456;7.622;2022-08-21T01:51:13;12.50;;;10.10;;
15114;SDS011;7658;51.456;7.622;2022-08-21T01:53:39;15.10;;;10.30;;
15114;SDS011;7658;51.456;7.622;2022-08-21T01:56:07;15.45;;;10.98;;
15114;SDS011;7658;51.456;7.622;2022-08-21T01:58:34;18.20;;;11.07;;
15114;SDS011;7658;51.456;7.622;2022-08-21T02:01:01;15.93;;;10.98;;
15114;SDS011;7658;51.456;7.622;2022-08-21T02:03:28;14.43;;;10.68;;
15114;SDS011;7658;51.456;7.622;2022-08-21T02:05:54;12.60;;;9.77;;
15114;SDS011;7658;51.456;7.622;2022-08-21T02:08:20;17.08;;;10.27;;
15114;SDS011;7658;51.456;7.622;2022-08-21T02:10:50;15.05;;;9.18;;
15114;SDS011;7658;51.456;7.622;2022-08-21T02:13:17;13.68;;;10.00;;
15114;SDS011;7658;51.456;7.622;2022-08-21T02:15:43;12.95;;;9.90;;
15114;SDS011;7658;51.456;7.622;2022-08-21T02:18:09;12.57;;;9.77;;
15114;SDS011;7658;51.456;7.622;2022-08-21T02:20:38;13.90;;;9.35;;
15114;SDS011;7658;51.456;7.622;2022-08-21T02:23:08;15.00;;;9.80;;
15114;SDS011;7658;51.456;7.622;2022-08-21T02:25:35;13.77;;;10.13;;
15114;SDS011;7658;51.456;7.622;2022-08-21T02:28:02;14.70;;;9.95;;
15114;SDS011;7658;51.456;7.622;2022-08-21T02:30:31;14.45;;;10.40;;
15114;SDS011;7658;51.456;7.622;2022-08-21T02:32:59;11.75;;;9.20;;
15114;SDS011;7658;51.456;7.622;2022-08-21T02:35:25;13.38;;;9.43;;
15114;SDS011;7658;51.456;7.622;2022-08-21T02:37:53;12.73;;;8.90;;
15114;SDS011;7658;51.456;7.622;2022-08-21T02:40:22;12.93;;;9.02;;
15114;SDS011;7658;51.456;7.622;2022-08-21T02:42:52;15.05;;;9.15;;
15114;SDS011;7658;51.456;7.622;2022-08-21T02:45:18;11.57;;;8.65;;
15114;SDS011;7658;51.456;7.622;2022-08-21T02:47:49;13.65;;;8.57;;
15114;SDS011;7658;51.456;7.622;2022-08-21T02:50:21;14.00;;;9.15;;
15114;SDS011;7658;51.456;7.622;2022-08-21T02:52:52;13.27;;;8.95;;
15114;SDS011;7658;51.456;7.622;2022-08-21T02:55:18;12.57;;;9.88;;
15114;SDS011;7658;51.456;7.622;2022-08-21T02:57:45;13.95;;;9.32;;
15114;SDS011;7658;51.456;7.622;2022-08-21T03:00:11;12.55;;;9.52;;
15114;SDS011;7658;51.456;7.622;2022-08-21T03:02:38;14.40;;;9.50;;
15114;SDS011;7658;51.456;7.622;2022-08-21T03:05:05;16.85;;;9.45;;
15114;SDS011;7658;51.456;7.622;2022-08-21T03:07:32;12.82;;;9.55;;
15114;SDS011;7658;51.456;7.622;2022-08-21T03:09:59;11.93;;;9.35;;
15114;SDS011;7658;51.456;7.622;2022-08-21T03:12:25;15.02;;;9.63;;
15114;SDS011;7658;51.456;7.622;2022-08-21T03:14:51;18.50;;;9.68;;
15114;SDS011;7658;51.456;7.622;2022-08-21T03:17:17;12.23;;;9.50;;
15114;SDS011;7658;51.456;7.622;2022-08-21T03:19:43;12.90;;;9.90;;
15114;SDS011;7658;51.456;7.622;2022-08-21T03:22:08;14.52;;;9.90;;
15114;SDS011;7658;51.456;7.622;2022-08-21T03:24:34;16.67;;;9.93;;
15114;SDS011;7658;51.456;7.622;2022-08-21T03:27:00;13.65;;;9.57;;
15114;SDS011;7658;51.456;7.622;2022-08-21T03:29:26;13.25;;;9.93;;
15114;SDS011;7658;51.456;7.622;2022-08-21T03:31:52;14.95;;;10.25;;
15114;SDS011;7658;51.456;7.622;2022-08-21T03:34:19;13.38;;;10.35;;
15114;SDS011;7658;51.456;7.622;2022-08-21T03:36:46;13.15;;;9.63;;
15114;SDS011;7658;51.456;7.622;2022-08-21T03:39:13;13.68;;;9.77;;
15114;SDS011;7658;51.456;7.622;2022-08-21T03:41:40;14.02;;;10.15;;
15114;SDS011;7658;51.456;7.622;2022-08-21T03:44:06;13.98;;;9.75;;
15114;SDS011;7658;51.456;7.622;2022-08-21T03:46:32;12.05;;;9.88;;
15114;SDS011;7658;51.456;7.622;2022-08-21T03:48:58;15.93;;;10.32;;
15114;SDS011;7658;51.456;7.622;2022-08-21T03:51:24;13.75;;;10.05;;
15114;SDS011;7658;51.456;7.622;2022-08-21T03:53:49;17.13;;;11.07;;
15114;SDS011;7658;51.456;7.622;2022-08-21T03:56:15;14.05;;;9.82;;
15114;SDS011;7658;51.456;7.622;2022-08-21T03:58:41;12.20;;;9.27;;
15114;SDS011;7658;51.456;7.622;2022-08-21T04:01:08;14.77;;;9.82;;
15114;SDS011;7658;51.456;7.622;2022-08-21T04:03:34;14.35;;;9.55;;
15114;SDS011;7658;51.456;7.622;2022-08-21T04:06:01;14.18;;;9.75;;
15114;SDS011;7658;51.456;7.622;2022-08-21T04:08:27;12.50;;;9.55;;
15114;SDS011;7658;51.456;7.622;2022-08-21T04:10:54;13.40;;;9.35;;
15114;SDS011;7658;51.456;7.622;2022-08-21T04:13:21;16.95;;;9.85;;
15114;SDS011;7658;51.456;7.622;2022-08-21T04:15:48;13.70;;;9.43;;
15114;SDS011;7658;51.456;7.622;2022-08-21T04:18:14;14.85;;;9.38;;
15114;SDS011;7658;51.456;7.622;2022-08-21T04:20:40;15.40;;;8.98;;
15114;SDS011;7658;51.456;7.622;2022-08-21T04:23:08;17.50;;;8.90;;
15114;SDS011;7658;51.456;7.622;2022-08-21T04:25:33;15.00;;;9.25;;
15114;SDS011;7658;51.456;7.622;2022-08-21T04:28:00;14.90;;;9.65;;
15114;SDS011;7658;51.456;7.622;2022-08-21T04:30:26;11.85;;;9.27;;
15114;SDS011;7658;51.456;7.622;2022-08-21T04:32:52;13.75;;;8.85;;
15114;SDS011;7658;51.456;7.622;2022-08-21T04:35:19;12.18;;;8.85;;
15114;SDS011;7658;51.456;7.622;2022-08-21T04:37:46;12.10;;;8.88;;
15114;SDS011;7658;51.456;7.622;2022-08-21T04:40:13;14.95;;;9.25;;
15114;SDS011;7658;51.456;7.622;2022-08-21T04:42:42;15.00;;;9.70;;
15114;SDS011;7658;51.456;7.622;2022-08-21T04:45:21;11.35;;;8.73;;
15114;SDS011;7658;51.456;7.622;2022-08-21T04:48:08;12.43;;;9.20;;
15114;SDS011;7658;51.456;7.622;2022-08-21T04:53:13;12.45;;;9.23;;
15114;SDS011;7658;51.456;7.622;2022-08-21T04:55:47;14.80;;;9.82;;
15114;SDS011;7658;51.456;7.622;2022-08-21T04:58:15;14.77;;;10.18;;
15114;SDS011;7658;51.456;7.622;2022-08-21T05:00:43;12.55;;;10.20;;
15114;SDS011;7658;51.456;7.622;2022-08-21T05:03:11;13.50;;;9.85;;
15114;SDS011;7658;51.456;7.622;2022-08-21T05:05:37;21.92;;;11.10;;
15114;SDS011;7658;51.456;7.622;2022-08-21T05:08:04;15.63;;;10.68;;
15114;SDS011;7658;51.456;7.622;2022-08-21T05:10:32;13.00;;;10.05;;
15114;SDS011;7658;51.456;7.622;2022-08-21T05:12:58;13.95;;;10.95;;
15114;SDS011;7658;51.456;7.622;2022-08-21T05:15:26;15.73;;;10.75;;
15114;SDS011;7658;51.456;7.622;2022-08-21T05:17:52;14.57;;;10.10;;
15114;SDS011;7658;51.456;7.622;2022-08-21T05:20:18;13.25;;;9.73;;
15114;SDS011;7658;51.456;7.622;2022-08-21T05:22:44;14.38;;;11.35;;
15114;SDS011;7658;51.456;7.622;2022-08-21T05:25:10;15.55;;;10.35;;
15114;SDS011;7658;51.456;7.622;2022-08-21T05:27:37;12.73;;;9.43;;
15114;SDS011;7658;51.456;7.622;2022-08-21T05:30:04;14.75;;;9.93;;
15114;SDS011;7658;51.456;7.622;2022-08-21T05:32:33;13.00;;;8.98;;
15114;SDS011;7658;51.456;7.622;2022-08-21T05:35:00;14.07;;;10.45;;
15114;SDS011;7658;51.456;7.622;2022-08-21T05:37:26;12.90;;;10.02;;
15114;SDS011;7658;51.456;7.622;2022-08-21T05:39:52;12.43;;;9.65;;
15114;SDS011;7658;51.456;7.622;2022-08-21T05:42:17;12.90;;;9.68;;
15114;SDS011;7658;51.456;7.622;2022-08-21T05:44:43;14.48;;;9.32;;
15114;SDS011;7658;51.456;7.622;2022-08-21T05:47:10;11.52;;;9.10;;
15114;SDS011;7658;51.456;7.622;2022-08-21T05:49:36;10.35;;;8.98;;
15114;SDS011;7658;51.456;7.622;2022-08-21T05:52:03;15.82;;;10.13;;
15114;SDS011;7658;51.456;7.622;2022-08-21T05:54:29;12.05;;;8.82;;
15114;SDS011;7658;51.456;7.622;2022-08-21T05:56:55;17.83;;;9.52;;
15114;SDS011;7658;51.456;7.622;2022-08-21T05:59:21;15.55;;;10.75;;
15114;SDS011;7658;51.456;7.622;2022-08-21T06:01:47;15.30;;;9.82;;
15114;SDS011;7658;51.456;7.622;2022-08-21T06:04:13;14.70;;;11.05;;
15114;SDS011;7658;51.456;7.622;2022-08-21T06:06:39;15.05;;;11.07;;
15114;SDS011;7658;51.456;7.622;2022-08-21T06:09:05;15.30;;;11.43;;
15114;SDS011;7658;51.456;7.622;2022-08-21T06:11:31;16.67;;;11.32;;
15114;SDS011;7658;51.456;7.622;2022-08-21T06:13:58;16.02;;;11.18;;
15114;SDS011;7658;51.456;7.622;2022-08-21T06:16:25;18.15;;;12.35;;
15114;SDS011;7658;51.456;7.622;2022-08-21T06:18:51;17.60;;;11.27;;
15114;SDS011;7658;51.456;7.622;2022-08-21T06:21:17;15.38;;;10.52;;
15114;SDS011;7658;51.456;7.622;2022-08-21T06:23:44;13.48;;;9.88;;
15114;SDS011;7658;51.456;7.622;2022-08-21T06:26:10;15.77;;;10.43;;
15114;SDS011;7658;51.456;7.622;2022-08-21T06:28:37;15.38;;;10.55;;
15114;SDS011;7658;51.456;7.622;2022-08-21T06:31:14;17.20;;;11.80;;
15114;SDS011;7658;51.456;7.622;2022-08-21T06:33:42;15.43;;;10.15;;
15114;SDS011;7658;51.456;7.622;2022-08-21T06:36:08;16.95;;;10.25;;
15114;SDS011;7658;51.456;7.622;2022-08-21T06:38:34;16.17;;;10.95;;
15114;SDS011;7658;51.456;7.622;2022-08-21T06:41:00;14.70;;;9.30;;
15114;SDS011;7658;51.456;7.622;2022-08-21T06:43:27;16.13;;;10.50;;
15114;SDS011;7658;51.456;7.622;2022-08-21T06:45:53;17.35;;;9.73;;
15114;SDS011;7658;51.456;7.622;2022-08-21T06:48:20;15.77;;;10.23;;
15114;SDS011;7658;51.456;7.622;2022-08-21T06:50:46;18.27;;;9.75;;
15114;SDS011;7658;51.456;7.622;2022-08-21T06:53:13;17.50;;;11.07;;
15114;SDS011;7658;51.456;7.622;2022-08-21T06:55:41;11.82;;;9.27;;
15114;SDS011;7658;51.456;7.622;2022-08-21T06:58:08;14.00;;;9.43;;
15114;SDS011;7658;51.456;7.622;2022-08-21T07:00:35;12.00;;;8.55;;
15114;SDS011;7658;51.456;7.622;2022-08-21T07:03:03;14.63;;;9.02;;
15114;SDS011;7658;51.456;7.622;2022-08-21T07:05:30;13.85;;;8.95;;
15114;SDS011;7658;51.456;7.622;2022-08-21T07:07:56;12.95;;;8.82;;
15114;SDS011;7658;51.456;7.622;2022-08-21T07:10:23;15.75;;;9.82;;
15114;SDS011;7658;51.456;7.622;2022-08-21T07:12:50;12.77;;;9.32;;
15114;SDS011;7658;51.456;7.622;2022-08-21T07:15:17;13.27;;;9.15;;
15114;SDS011;7658;51.456;7.622;2022-08-21T07:17:43;14.57;;;10.00;;
15114;SDS011;7658;51.456;7.622;2022-08-21T07:20:09;13.65;;;9.50;;
15114;SDS011;7658;51.456;7.622;2022-08-21T07:22:35;13.90;;;8.73;;
15114;SDS011;7658;51.456;7.622;2022-08-21T07:25:02;12.35;;;8.13;;
15114;SDS011;7658;51.456;7.622;2022-08-21T07:27:29;11.05;;;8.48;;
15114;SDS011;7658;51.456;7.622;2022-08-21T07:29:55;12.05;;;7.72;;
15114;SDS011;7658;51.456;7.622;2022-08-21T07:32:21;15.30;;;8.45;;
15114;SDS011;7658;51.456;7.622;2022-08-21T07:34:47;11.57;;;7.60;;
15114;SDS011;7658;51.456;7.622;2022-08-21T07:37:12;13.30;;;8.40;;
15114;SDS011;7658;51.456;7.622;2022-08-21T07:39:38;16.10;;;9.18;;
15114;SDS011;7658;51.456;7.622;2022-08-21T07:42:04;11.43;;;7.95;;
15114;SDS011;7658;51.456;7.622;2022-08-21T07:44:30;12.70;;;7.82;;
15114;SDS011;7658;51.456;7.622;2022-08-21T07:46:56;13.68;;;7.78;;
15114;SDS011;7658;51.456;7.622;2022-08-21T07:49:22;12.80;;;7.40;;
15114;SDS011;7658;51.456;7.622;2022-08-21T07:51:48;13.60;;;7.88;;
15114;SDS011;7658;51.456;7.622;2022-08-21T07:54:14;13.23;;;7.53;;
15114;SDS011;7658;51.456;7.622;2022-08-21T07:56:39;14.80;;;7.38;;
15114;SDS011;7658;51.456;7.622;2022-08-21T07:59:05;10.50;;;7.32;;
15114;SDS011;7658;51.456;7.622;2022-08-21T08:01:31;12.82;;;7.78;;
15114;SDS011;7658;51.456;7.622;2022-08-21T08:03:57;15.55;;;7.20;;
15114;SDS011;7658;51.456;7.622;2022-08-21T08:06:22;10.60;;;7.70;;
15114;SDS011;7658;51.456;7.622;2022-08-21T08:08:49;13.18;;;7.45;;
15114;SDS011;7658;51.456;7.622;2022-08-21T08:11:15;12.38;;;7.05;;
15114;SDS011;7658;51.456;7.622;2022-08-21T08:13:45;13.40;;;7.88;;
15114;SDS011;7658;51.456;7.622;2022-08-21T08:16:13;14.10;;;7.35;;
15114;SDS011;7658;51.456;7.622;2022-08-21T08:18:39;10.93;;;6.05;;
15114;SDS011;7658;51.456;7.622;2022-08-21T08:21:06;11.40;;;6.35;;
15114;SDS011;7658;51.456;7.622;2022-08-21T08:23:33;13.15;;;7.32;;
15114;SDS011;7658;51.456;7.622;2022-08-21T08:25:59;12.07;;;6.80;;
15114;SDS011;7658;51.456;7.622;2022-08-21T08:28:25;11.13;;;6.65;;
15114;SDS011;7658;51.456;7.622;2022-08-21T08:30:52;9.70;;;6.70;;
15114;SDS011;7658;51.456;7.622;2022-08-21T08:33:18;12.45;;;6.78;;
15114;SDS011;7658;51.456;7.622;2022-08-21T08:35:45;11.20;;;6.10;;
15114;SDS011;7658;51.456;7.622;2022-08-21T08:38:13;11.60;;;6.97;;
15114;SDS011;7658;51.456;7.622;2022-08-21T08:43:25;12.50;;;7.35;;
15114;SDS011;7658;51.456;7.622;2022-08-21T08:45:53;11.52;;;6.60;;
15114;SDS011;7658;51.456;7.622;2022-08-21T08:48:31;13.43;;;6.10;;
15114;SDS011;7658;51.456;7.622;2022-08-21T08:51:08;14.48;;;5.97;;
15114;SDS011;7658;51.456;7.622;2022-08-21T08:53:52;8.30;;;4.68;;
15114;SDS011;7658;51.456;7.622;2022-08-21T08:56:28;11.95;;;5.32;;
15114;SDS011;7658;51.456;7.622;2022-08-21T08:59:09;9.85;;;5.20;;
15114;SDS011;7658;51.456;7.622;2022-08-21T09:01:41;10.25;;;4.82;;
15114;SDS011;7658;51.456;7.622;2022-08-21T09:04:08;13.27;;;5.40;;
15114;SDS011;7658;51.456;7.622;2022-08-21T09:06:51;11.18;;;4.22;;
15114;SDS011;7658;51.456;7.622;2022-08-21T09:09:29;11.63;;;4.60;;
15114;SDS011;7658;51.456;7.622;2022-08-21T09:12:25;9.52;;;4.20;;
15114;SDS011;7658;51.456;7.622;2022-08-21T09:18:35;11.15;;;4.32;;
15114;SDS011;7658;51.456;7.622;2022-08-21T09:26:39;8.40;;;4.72;;
15114;SDS011;7658;51.456;7.622;2022-08-21T09:29:28;11.32;;;4.43;;
15114;SDS011;7658;51.456;7.622;2022-08-21T09:31:58;8.52;;;4.25;;
15114;SDS011;7658;51.456;7.622;2022-08-21T09:34:28;9.15;;;4.50;;
15114;SDS011;7658;51.456;7.622;2022-08-21T09:36:55;10.57;;;4.07;;
15114;SDS011;7658;51.456;7.622;2022-08-21T09:39:29;10.35;;;4.78;;
15114;SDS011;7658;51.456;7.622;2022-08-21T09:42:04;9.70;;;4.28;;
15114;SDS011;7658;51.456;7.622;2022-08-21T09:44:35;7.47;;;3.72;;
15114;SDS011;7658;51.456;7.622;2022-08-21T09:47:07;6.72;;;3.92;;
15114;SDS011;7658;51.456;7.622;2022-08-21T09:49:35;9.35;;;3.10;;
15114;SDS011;7658;51.456;7.622;2022-08-21T09:52:03;6.90;;;2.92;;
15114;SDS011;7658;51.456;7.622;2022-08-21T09:54:37;8.93;;;3.13;;
15114;SDS011;7658;51.456;7.622;2022-08-21T09:57:11;6.53;;;3.25;;
15114;SDS011;7658;51.456;7.622;2022-08-21T10:02:43;8.13;;;3.15;;
15114;SDS011;7658;51.456;7.622;2022-08-21T10:05:20;11.02;;;3.45;;
15114;SDS011;7658;51.456;7.622;2022-08-21T10:07:49;7.93;;;3.50;;
15114;SDS011;7658;51.456;7.622;2022-08-21T10:10:36;5.80;;;2.88;;
15114;SDS011;7658;51.456;7.622;2022-08-21T10:15:56;8.25;;;3.33;;
15114;SDS011;7658;51.456;7.622;2022-08-21T10:18:46;9.75;;;3.30;;
15114;SDS011;7658;51.456;7.622;2022-08-21T10:21:29;7.60;;;2.90;;
15114;SDS011;7658;51.456;7.622;2022-08-21T10:24:07;7.55;;;2.95;;
15114;SDS011;7658;51.456;7.622;2022-08-21T10:29:21;8.55;;;3.22;;
15114;SDS011;7658;51.456;7.622;2022-08-21T10:32:02;10.55;;;2.78;;
15114;SDS011;7658;51.456;7.622;2022-08-21T10:34:52;9.40;;;2.88;;
15114;SDS011;7658;51.456;7.622;2022-08-21T10:37:49;8.88;;;3.13;;
15114;SDS011;7658;51.456;7.622;2022-08-21T10:45:52;9.18;;;2.65;;
15114;SDS011;7658;51.456;7.622;2022-08-21T10:48:45;9.77;;;2.83;;
15114;SDS011;7658;51.456;7.622;2022-08-21T10:53:54;8.20;;;3.00;;
15114;SDS011;7658;51.456;7.622;2022-08-21T10:56:23;9.07;;;2.72;;
15114;SDS011;7658;51.456;7.622;2022-08-21T11:04:49;7.00;;;2.83;;
15114;SDS011;7658;51.456;7.622;2022-08-21T11:07:32;8.75;;;3.20;;
15114;SDS011;7658;51.456;7.622;2022-08-21T11:10:33;6.88;;;3.05;;
15114;SDS011;7658;51.456;7.622;2022-08-21T11:13:19;9.57;;;2.63;;
15114;SDS011;7658;51.456;7.622;2022-08-21T11:16:07;7.90;;;2.88;;
15114;SDS011;7658;51.456;7.622;2022-08-21T11:19:02;8.75;;;2.97;;
15114;SDS011;7658;51.456;7.622;2022-08-21T11:21:56;7.22;;;2.40;;
15114;SDS011;7658;51.456;7.622;2022-08-21T11:24:42;6.63;;;2.95;;
15114;SDS011;7658;51.456;7.622;2022-08-21T11:29:59;5.55;;;2.30;;
15114;SDS011;7658;51.456;7.622;2022-08-21T11:45:52;5.28;;;2.45;;
15114;SDS011;7658;51.456;7.622;2022-08-21T11:48:40;4.72;;;2.38;;
15114;SDS011;7658;51.456;7.622;2022-08-21T11:51:13;4.03;;;2.03;;
15114;SDS011;7658;51.456;7.622;2022-08-21T11:56:59;5.22;;;2.33;;
15114;SDS011;7658;51.456;7.622;2022-08-21T11:59:39;6.07;;;2.25;;
15114;SDS011;7658;51.456;7.622;2022-08-21T12:02:12;7.82;;;2.40;;
15114;SDS011;7658;51.456;7.622;2022-08-21T12:04:49;12.25;;;2.70;;
15114;SDS011;7658;51.456;7.622;2022-08-21T12:10:03;7.40;;;2.60;;
15114;SDS011;7658;51.456;7.622;2022-08-21T12:12:33;7.95;;;2.53;;
15114;SDS011;7658;51.456;7.622;2022-08-21T12:15:15;4.53;;;1.83;;
15114;SDS011;7658;51.456;7.622;2022-08-21T12:17:55;8.50;;;2.25;;
15114;SDS011;7658;51.456;7.622;2022-08-21T12:20:56;5.65;;;2.10;;
15114;SDS011;7658;51.456;7.622;2022-08-21T12:23:32;8.20;;;2.50;;
15114;SDS011;7658;51.456;7.622;2022-08-21T12:26:14;4.78;;;2.03;;
15114;SDS011;7658;51.456;7.622;2022-08-21T12:29:11;4.32;;;1.92;;
15114;SDS011;7658;51.456;7.622;2022-08-21T12:34:17;6.50;;;1.77;;
15114;SDS011;7658;51.456;7.622;2022-08-21T12:36:46;4.65;;;1.88;;
15114;SDS011;7658;51.456;7.622;2022-08-21T12:39:21;5.50;;;1.80;;
15114;SDS011;7658;51.456;7.622;2022-08-21T12:41:51;7.13;;;2.00;;
15114;SDS011;7658;51.456;7.622;2022-08-21T12:44:29;5.60;;;1.90;;
15114;SDS011;7658;51.456;7.622;2022-08-21T12:47:02;6.35;;;1.80;;
15114;SDS011;7658;51.456;7.622;2022-08-21T12:49:40;3.22;;;1.80;;
15114;SDS011;7658;51.456;7.622;2022-08-21T12:52:20;4.70;;;2.00;;
15114;SDS011;7658;51.456;7.622;2022-08-21T12:54:59;5.43;;;1.75;;
15114;SDS011;7658;51.456;7.622;2022-08-21T12:57:26;3.33;;;1.55;;
15114;SDS011;7658;51.456;7.622;2022-08-21T12:59:55;2.72;;;1.60;;
15114;SDS011;7658;51.456;7.622;2022-08-21T13:02:24;6.07;;;2.13;;
15114;SDS011;7658;51.456;7.622;2022-08-21T13:04:54;3.88;;;1.70;;
15114;SDS011;7658;51.456;7.622;2022-08-21T13:07:28;5.55;;;1.50;;
15114;SDS011;7658;51.456;7.622;2022-08-21T13:10:14;3.80;;;1.77;;
15114;SDS011;7658;51.456;7.622;2022-08-21T13:12:45;4.75;;;1.35;;
15114;SDS011;7658;51.456;7.622;2022-08-21T13:15:12;6.38;;;2.30;;
15114;SDS011;7658;51.456;7.622;2022-08-21T13:17:39;3.45;;;1.70;;
15114;SDS011;7658;51.456;7.622;2022-08-21T13:20:22;5.13;;;1.77;;
15114;SDS011;7658;51.456;7.622;2022-08-21T13:22:50;4.38;;;2.42;;
15114;SDS011;7658;51.456;7.622;2022-08-21T13:25:18;3.25;;;1.65;;
15114;SDS011;7658;51.456;7.622;2022-08-21T13:27:56;4.88;;;1.67;;
15114;SDS011;7658;51.456;7.622;2022-08-21T13:30:23;3.90;;;1.75;;
15114;SDS011;7658;51.456;7.622;2022-08-21T13:32:54;4.90;;;1.70;;
15114;SDS011;7658;51.456;7.622;2022-08-21T13:35:28;2.92;;;1.42;;
15114;SDS011;7658;51.456;7.622;2022-08-21T13:38:21;4.15;;;1.60;;
15114;SDS011;7658;51.456;7.622;2022-08-21T13:40:55;2.30;;;1.45;;
15114;SDS011;7658;51.456;7.622;2022-08-21T13:43:26;3.78;;;1.60;;
15114;SDS011;7658;51.456;7.622;2022-08-21T13:45:56;4.25;;;1.38;;
15114;SDS011;7658;51.456;7.622;2022-08-21T13:48:25;4.22;;;1.42;;
15114;SDS011;7658;51.456;7.622;2022-08-21T13:50:54;4.13;;;1.60;;
15114;SDS011;7658;51.456;7.622;2022-08-21T13:55:56;5.13;;;1.70;;
15114;SDS011;7658;51.456;7.622;2022-08-21T14:00:51;5.22;;;1.70;;
15114;SDS011;7658;51.456;7.622;2022-08-21T14:03:27;4.10;;;1.60;;
15114;SDS011;7658;51.456;7.622;2022-08-21T14:06:00;4.07;;;1.40;;
15114;SDS011;7658;51.456;7.622;2022-08-21T14:08:31;3.63;;;1.40;;
15114;SDS011;7658;51.456;7.622;2022-08-21T14:11:00;3.15;;;1.42;;
15114;SDS011;7658;51.456;7.622;2022-08-21T14:15:58;2.72;;;1.65;;
15114;SDS011;7658;51.456;7.622;2022-08-21T14:18:26;3.25;;;1.52;;
15114;SDS011;7658;51.456;7.622;2022-08-21T14:21:03;7.70;;;3.55;;
15114;SDS011;7658;51.456;7.622;2022-08-21T14:23:33;3.85;;;1.80;;
15114;SDS011;7658;51.456;7.622;2022-08-21T14:26:00;3.17;;;1.40;;
15114;SDS011;7658;51.456;7.622;2022-08-21T14:28:38;4.03;;;1.60;;
15114;SDS011;7658;51.456;7.622;2022-08-21T14:31:39;5.65;;;1.75;;
15114;SDS011;7658;51.456;7.622;2022-08-21T14:33:59;3.08;;;1.63;;
15114;SDS011;7658;51.456;7.622;2022-08-21T14:36:26;5.65;;;1.80;;
15114;SDS011;7658;51.456;7.622;2022-08-21T14:38:52;3.60;;;2.20;;
15114;SDS011;7658;51.456;7.622;2022-08-21T14:41:19;3.65;;;1.30;;
15114;SDS011;7658;51.456;7.622;2022-08-21T14:43:48;4.35;;;1.98;;
15114;SDS011;7658;51.456;7.622;2022-08-21T14:46:16;2.80;;;1.83;;
15114;SDS011;7658;51.456;7.622;2022-08-21T14:48:47;3.47;;;1.35;;
15114;SDS011;7658;51.456;7.622;2022-08-21T14:51:14;3.30;;;1.65;;
15114;SDS011;7658;51.456;7.622;2022-08-21T14:53:40;3.88;;;1.63;;
15114;SDS011;7658;51.456;7.622;2022-08-21T14:56:05;4.43;;;1.85;;
15114;SDS011;7658;51.456;7.622;2022-08-21T14:58:36;3.53;;;1.30;;
15114;SDS011;7658;51.456;7.622;2022-08-21T15:01:09;3.15;;;1.20;;
15114;SDS011;7658;51.456;7.622;2022-08-21T15:03:37;5.60;;;1.60;;
15114;SDS011;7658;51.456;7.622;2022-08-21T15:06:04;3.47;;;1.65;;
15114;SDS011;7658;51.456;7.622;2022-08-21T15:08:31;2.58;;;1.50;;
15114;SDS011;7658;51.456;7.622;2022-08-21T15:10:58;3.88;;;1.50;;
15114;SDS011;7658;51.456;7.622;2022-08-21T15:13:25;4.53;;;1.73;;
15114;SDS011;7658;51.456;7.622;2022-08-21T15:15:52;4.47;;;2.00;;
15114;SDS011;7658;51.456;7.622;2022-08-21T15:18:20;3.05;;;1.55;;
15114;SDS011;7658;51.456;7.622;2022-08-21T15:20:47;3.28;;;2.30;;
15114;SDS011;7658;51.456;7.622;2022-08-21T15:23:14;6.10;;;1.70;;
15114;SDS011;7658;51.456;7.622;2022-08-21T15:25:40;10.00;;;4.68;;
15114;SDS011;7658;51.456;7.622;2022-08-21T15:28:08;5.07;;;2.28;;
15114;SDS011;7658;51.456;7.622;2022-08-21T15:30:35;5.90;;;2.80;;
15114;SDS011;7658;51.456;7.622;2022-08-21T15:33:02;8.80;;;6.57;;
15114;SDS011;7658;51.456;7.622;2022-08-21T15:35:29;6.10;;;1.75;;
15114;SDS011;7658;51.456;7.622;2022-08-21T15:37:55;5.28;;;1.50;;
15114;SDS011;7658;51.456;7.622;2022-08-21T15:40:21;5.50;;;2.08;;
15114;SDS011;7658;51.456;7.622;2022-08-21T15:42:47;3.13;;;1.90;;
15114;SDS011;7658;51.456;7.622;2022-08-21T15:45:13;3.17;;;1.60;;
15114;SDS011;7658;51.456;7.622;2022-08-21T15:47:39;2.30;;;1.27;;
15114;SDS011;7658;51.456;7.622;2022-08-21T15:50:09;2.50;;;1.45;;
15114;SDS011;7658;51.456;7.622;2022-08-21T15:52:36;3.97;;;1.40;;
15114;SDS011;7658;51.456;7.622;2022-08-21T15:55:02;5.25;;;1.75;;
15114;SDS011;7658;51.456;7.622;2022-08-21T15:57:32;2.90;;;1.70;;
15114;SDS011;7658;51.456;7.622;2022-08-21T16:00:00;3.55;;;1.70;;
15114;SDS011;7658;51.456;7.622;2022-08-21T16:02:38;3.40;;;1.65;;
15114;SDS011;7658;51.456;7.622;2022-08-21T16:05:07;2.67;;;1.60;;
15114;SDS011;7658;51.456;7.622;2022-08-21T16:07:35;1.88;;;1.60;;
15114;SDS011;7658;51.456;7.622;2022-08-21T16:10:02;3.95;;;1.70;;
15114;SDS011;7658;51.456;7.622;2022-08-21T16:12:29;3.13;;;1.48;;
15114;SDS011;7658;51.456;7.622;2022-08-21T16:14:57;3.60;;;1.63;;
15114;SDS011;7658;51.456;7.622;2022-08-21T16:17:25;5.22;;;1.75;;
15114;SDS011;7658;51.456;7.622;2022-08-21T16:19:54;4.50;;;1.60;;